createdAt,value
2023-03-16T00:00:19.671Z,596.00
2023-03-16T00:04:19.372Z,568.00
2023-03-16T00:08:19.033Z,586.00
2023-03-16T00:12:18.693Z,586.00
2023-03-16T00:16:18.320Z,568.00
2023-03-16T00:20:17.963Z,612.00
2023-03-16T00:24:17.575Z,623.00
2023-03-16T00:28:17.227Z,626.00
2023-03-16T00:32:16.829Z,658.00
2023-03-16T00:36:16.466Z,665.00
2023-03-16T00:40:16.120Z,665.00
2023-03-16T00:44:15.912Z,724.00
2023-03-16T00:48:15.534Z,730.00
2023-03-16T00:52:15.189Z,706.00
2023-03-16T00:56:14.802Z,679.00
2023-03-16T01:00:14.450Z,724.00
2023-03-16T01:04:14.069Z,739.00
2023-03-16T01:08:13.706Z,790.00
2023-03-16T01:12:13.326Z,806.00
2023-03-16T01:16:12.954Z,762.00
2023-03-16T01:20:12.628Z,710.00
2023-03-16T01:24:12.212Z,812.00
2023-03-16T01:28:11.916Z,780.00
2023-03-16T01:32:11.796Z,757.00
2023-03-16T01:36:11.611Z,715.00
2023-03-16T01:40:11.360Z,710.00
2023-03-16T01:44:11.049Z,706.00
2023-03-16T01:48:10.738Z,638.00
2023-03-16T01:52:10.432Z,657.00
2023-03-16T01:56:10.152Z,616.00
2023-03-16T02:00:09.886Z,637.00
2023-03-16T02:04:09.594Z,655.00
2023-03-16T02:08:09.220Z,655.00
2023-03-16T02:12:08.916Z,647.00
2023-03-16T02:16:08.714Z,657.00
2023-03-16T02:20:08.353Z,662.00
2023-03-16T02:24:08.091Z,657.00
2023-03-16T02:28:07.805Z,717.00
2023-03-16T02:32:07.534Z,671.00
2023-03-16T02:36:07.387Z,636.00
2023-03-16T02:40:06.974Z,687.00
2023-03-16T02:44:06.730Z,631.00
2023-03-16T02:48:06.510Z,664.00
2023-03-16T02:52:06.293Z,721.00
2023-03-16T02:56:05.999Z,678.00
2023-03-16T03:00:05.698Z,700.00
2023-03-16T03:04:05.439Z,664.00
2023-03-16T03:08:05.063Z,680.00
2023-03-16T03:12:04.770Z,675.00
2023-03-16T03:16:04.501Z,700.00
2023-03-16T03:20:04.146Z,659.00
2023-03-16T03:24:03.934Z,685.00
2023-03-16T03:28:03.618Z,685.00
2023-03-16T03:32:03.269Z,636.00
2023-03-16T03:36:03.123Z,711.00
2023-03-16T03:40:02.711Z,662.00
2023-03-16T03:44:02.472Z,829.00
2023-03-16T03:48:02.156Z,847.00
2023-03-16T03:52:01.866Z,794.00
2023-03-16T03:56:01.573Z,808.00
2023-03-16T04:00:01.246Z,779.00
2023-03-16T04:04:00.961Z,776.00
2023-03-16T04:08:00.613Z,641.00
2023-03-16T04:12:00.320Z,628.00
2023-03-16T04:16:00.091Z,678.00
2023-03-16T04:19:59.701Z,642.00
2023-03-16T04:23:59.440Z,697.00
2023-03-16T04:27:59.152Z,670.00
2023-03-16T04:31:58.825Z,663.00
2023-03-16T04:35:58.568Z,700.00
2023-03-16T04:39:58.238Z,713.00
2023-03-16T04:43:57.953Z,850.00
2023-03-16T04:47:57.714Z,865.00
2023-03-16T04:51:57.544Z,901.00
2023-03-16T04:55:57.160Z,995.00
2023-03-16T04:59:56.928Z,1065.00
2023-03-16T05:03:58.607Z,1157.00
2023-03-16T05:07:56.380Z,1131.00
2023-03-16T05:11:56.030Z,1130.00
2023-03-16T05:15:55.810Z,1138.00
2023-03-16T05:19:55.395Z,1102.00
2023-03-16T05:23:55.103Z,1002.00
2023-03-16T05:27:54.694Z,1106.00
2023-03-16T05:31:54.350Z,1078.00
2023-03-16T05:35:54.107Z,1084.00
2023-03-16T05:39:53.711Z,1074.00
2023-03-16T05:43:53.421Z,1057.00
2023-03-16T05:47:53.082Z,1038.00
2023-03-16T05:51:52.708Z,1069.00
2023-03-16T05:55:52.398Z,1187.00
2023-03-16T05:59:52.068Z,1200.00
2023-03-16T06:03:51.915Z,1283.00
2023-03-16T06:07:51.425Z,1294.00
2023-03-16T06:11:51.046Z,1316.00
2023-03-16T06:15:50.772Z,1415.00
2023-03-16T06:19:50.362Z,1441.00
2023-03-16T06:23:50.091Z,1477.00
2023-03-16T06:27:49.872Z,1505.00
2023-03-16T06:31:49.721Z,1524.00
2023-03-16T06:35:49.535Z,1631.00
2023-03-16T06:39:49.486Z,1665.00
2023-03-16T06:43:49.491Z,1837.00
2023-03-16T06:47:49.024Z,1754.00
2023-03-16T06:51:49.015Z,1930.00
2023-03-16T06:55:49.018Z,1977.00
2023-03-16T06:59:48.982Z,2137.00
2023-03-16T07:03:48.316Z,2101.00
2023-03-16T07:07:47.966Z,2080.00
2023-03-16T07:11:47.646Z,2023.00
2023-03-16T07:15:47.480Z,2022.00
2023-03-16T07:19:46.974Z,2031.00
2023-03-16T07:23:46.679Z,2059.00
2023-03-16T07:27:46.502Z,2056.00
2023-03-16T07:31:46.135Z,2095.00
2023-03-16T07:35:45.852Z,2142.00
2023-03-16T07:39:47.522Z,2142.00
2023-03-16T07:43:45.470Z,2213.00
2023-03-16T07:47:45.529Z,2187.00
2023-03-16T07:51:45.077Z,2208.00
2023-03-16T07:55:45.038Z,2287.00
2023-03-16T07:59:44.343Z,2333.00
2023-03-16T08:03:44.053Z,2360.00
2023-03-16T08:07:43.811Z,2334.00
2023-03-16T08:11:43.508Z,2236.00
2023-03-16T08:15:43.232Z,2293.00
2023-03-16T08:19:42.884Z,2142.00
2023-03-16T08:23:43.084Z,2205.00
2023-03-16T08:27:42.295Z,2201.00
2023-03-16T08:31:42.122Z,2167.00
2023-03-16T08:35:41.691Z,2080.00
2023-03-16T08:39:41.537Z,2085.00
2023-03-16T08:43:41.557Z,1926.00
2023-03-16T08:47:41.040Z,1968.00
2023-03-16T08:51:40.739Z,2013.00
2023-03-16T08:55:40.395Z,2033.00
2023-03-16T08:59:40.320Z,2034.00
2023-03-16T09:03:40.073Z,2013.00
2023-03-16T09:07:40.052Z,1823.00
2023-03-16T09:11:39.593Z,1909.00
2023-03-16T09:15:39.574Z,1883.00
2023-03-16T09:19:53.809Z,1872.00
2023-03-16T09:23:39.765Z,1892.00
2023-03-16T09:27:38.466Z,1776.00
2023-03-16T09:31:38.644Z,1534.00
2023-03-16T09:35:38.128Z,1717.00
2023-03-16T09:39:38.063Z,1427.00
2023-03-16T09:43:37.534Z,711.00
2023-03-16T09:47:37.623Z,821.00
2023-03-16T09:51:37.579Z,556.00
2023-03-16T09:55:37.568Z,554.00
2023-03-16T09:59:37.550Z,707.00
2023-03-16T10:03:37.031Z,1149.00
2023-03-16T10:07:36.711Z,1171.00
2023-03-16T10:11:36.570Z,643.00
2023-03-16T10:15:36.314Z,710.00
2023-03-16T10:19:36.139Z,634.00
2023-03-16T10:23:36.032Z,757.00
2023-03-16T10:27:36.112Z,715.00
2023-03-16T10:31:35.623Z,625.00
2023-03-16T10:35:35.561Z,637.00
2023-03-16T10:39:35.298Z,631.00
2023-03-16T10:43:35.561Z,759.00
2023-03-16T10:47:35.117Z,1138.00
2023-03-16T10:51:35.067Z,1381.00
2023-03-16T10:55:34.502Z,1578.00
2023-03-16T10:59:34.595Z,1776.00
2023-03-16T11:03:35.187Z,1911.00
2023-03-16T11:07:33.762Z,1939.00
2023-03-16T11:11:33.533Z,2001.00
2023-03-16T11:15:33.191Z,2090.00
2023-03-16T11:19:32.773Z,1978.00
2023-03-16T11:23:32.431Z,2079.00
2023-03-16T11:27:32.052Z,2196.00
2023-03-16T11:31:31.809Z,2240.00
2023-03-16T11:35:31.642Z,2328.00
2023-03-16T11:39:31.102Z,2774.00
2023-03-16T11:43:31.097Z,2846.00
2023-03-16T11:47:30.226Z,2629.00
2023-03-16T11:51:30.133Z,2459.00
2023-03-16T11:55:29.870Z,2392.00
2023-03-16T11:59:29.177Z,2381.00
2023-03-16T12:03:28.940Z,2267.00
2023-03-16T12:07:28.526Z,2281.00
2023-03-16T12:11:28.604Z,2181.00
2023-03-16T12:15:28.477Z,2263.00
2023-03-16T12:19:27.958Z,2196.00
2023-03-16T12:23:28.969Z,2111.00
2023-03-16T12:27:27.616Z,2058.00
2023-03-16T12:31:27.668Z,2202.00
2023-03-16T12:35:28.138Z,2581.00
2023-03-16T12:39:27.169Z,2469.00
2023-03-16T12:43:27.065Z,2512.00
2023-03-16T12:47:27.130Z,2491.00
2023-03-16T12:51:26.753Z,2219.00
2023-03-16T12:55:26.596Z,2168.00
2023-03-16T12:59:26.124Z,1983.00
2023-03-16T13:03:25.713Z,1923.00
2023-03-16T13:07:25.634Z,1929.00
2023-03-16T13:11:24.940Z,1879.00
2023-03-16T13:15:24.607Z,1903.00
2023-03-16T13:19:24.264Z,1867.00
2023-03-16T13:23:24.176Z,1976.00
2023-03-16T13:27:23.535Z,1704.00
2023-03-16T13:31:23.207Z,1636.00
2023-03-16T13:35:22.765Z,1591.00
2023-03-16T13:39:22.644Z,1611.00
2023-03-16T13:43:22.108Z,1636.00
2023-03-16T13:47:21.906Z,1659.00
2023-03-16T13:51:22.145Z,1642.00
2023-03-16T13:55:21.470Z,1683.00
2023-03-16T13:59:21.391Z,1698.00
2023-03-16T14:03:21.106Z,1626.00
2023-03-16T14:07:21.158Z,1708.00
2023-03-16T14:11:21.163Z,1651.00
2023-03-16T14:15:20.661Z,1636.00
2023-03-16T14:19:20.668Z,1914.00
2023-03-16T14:23:20.209Z,1792.00
2023-03-16T14:27:19.987Z,1748.00
2023-03-16T14:31:19.935Z,1849.00
2023-03-16T14:35:19.687Z,1748.00
2023-03-16T14:39:19.528Z,1755.00
2023-03-16T14:43:19.332Z,1763.00
2023-03-16T14:47:19.186Z,1749.00
2023-03-16T14:51:18.980Z,1753.00
2023-03-16T14:55:19.189Z,1805.00
2023-03-16T14:59:18.564Z,1734.00
2023-03-16T15:03:18.372Z,1753.00
2023-03-16T15:07:18.692Z,1842.00
2023-03-16T15:11:18.165Z,1856.00
2023-03-16T15:15:17.848Z,1923.00
2023-03-16T15:19:17.685Z,1779.00
2023-03-16T15:23:17.422Z,1921.00
2023-03-16T15:27:17.220Z,1858.00
2023-03-16T15:31:16.957Z,1824.00
2023-03-16T15:35:16.676Z,1798.00
2023-03-16T15:39:16.352Z,1775.00
2023-03-16T15:43:16.084Z,1760.00
2023-03-16T15:47:15.911Z,1668.00
2023-03-16T15:51:15.608Z,1664.00
2023-03-16T15:55:15.502Z,1646.00
2023-03-16T15:59:15.215Z,1551.00
2023-03-16T16:03:15.053Z,1483.00
2023-03-16T16:07:14.845Z,1498.00
2023-03-16T16:11:14.673Z,1471.00
2023-03-16T16:15:14.492Z,1443.00
2023-03-16T16:19:14.316Z,1526.00
2023-03-16T16:23:14.134Z,1542.00
2023-03-16T16:27:13.995Z,1492.00
2023-03-16T16:31:13.864Z,1443.00
2023-03-16T16:35:13.624Z,1501.00
2023-03-16T16:39:13.454Z,1503.00
2023-03-16T16:43:13.315Z,1443.00
2023-03-16T16:47:13.121Z,1443.00
2023-03-16T16:51:12.950Z,1472.00
2023-03-16T16:55:12.761Z,1483.00
2023-03-16T16:59:12.587Z,1443.00
2023-03-16T17:03:12.411Z,1534.00
2023-03-16T17:07:12.233Z,1570.00
2023-03-16T17:11:12.056Z,1532.00
2023-03-16T17:15:11.965Z,1500.00
2023-03-16T17:19:11.716Z,1520.00
2023-03-16T17:23:11.523Z,1543.00
2023-03-16T17:27:11.351Z,1547.00
2023-03-16T17:31:11.271Z,1480.00
2023-03-16T17:35:11.048Z,1502.00
2023-03-16T17:39:10.872Z,1517.00
2023-03-16T17:43:10.791Z,1458.00
2023-03-16T17:47:10.682Z,1389.00
2023-03-16T17:51:10.500Z,1410.00
2023-03-16T17:55:10.360Z,1498.00
2023-03-16T17:59:10.228Z,1560.00
2023-03-16T18:03:09.846Z,1342.00
2023-03-16T18:07:09.498Z,1309.00
2023-03-16T18:11:09.738Z,1303.00
2023-03-16T18:15:08.693Z,1353.00
2023-03-16T18:19:08.330Z,1319.00
2023-03-16T18:23:07.953Z,1364.00
2023-03-16T18:27:09.314Z,1369.00
2023-03-16T18:31:07.266Z,1450.00
2023-03-16T18:35:06.873Z,1515.00
2023-03-16T18:39:06.487Z,1585.00
2023-03-16T18:43:06.138Z,1458.00
2023-03-16T18:47:05.824Z,1406.00
2023-03-16T18:51:05.397Z,1474.00
2023-03-16T18:55:05.091Z,1524.00
2023-03-16T18:59:04.702Z,1462.00
2023-03-16T19:03:04.359Z,1554.00
2023-03-16T19:07:03.968Z,1469.00
2023-03-16T19:11:03.653Z,1459.00
2023-03-16T19:15:03.269Z,1447.00
2023-03-16T19:19:02.929Z,1610.00
2023-03-16T19:23:02.645Z,1500.00
2023-03-16T19:27:02.399Z,1464.00
2023-03-16T19:31:02.093Z,1412.00
2023-03-16T19:35:01.837Z,1351.00
2023-03-16T19:39:01.531Z,1359.00
2023-03-16T19:43:01.279Z,1280.00
2023-03-16T19:47:01.022Z,1235.00
2023-03-16T19:51:00.744Z,1355.00
2023-03-16T19:55:00.484Z,1401.00
2023-03-16T19:59:00.226Z,1410.00
2023-03-16T20:02:59.954Z,1344.00
2023-03-16T20:06:59.803Z,1248.00
2023-03-16T20:10:59.491Z,1163.00
2023-03-16T20:14:59.230Z,1175.00
2023-03-16T20:18:58.977Z,1203.00
2023-03-16T20:22:58.800Z,1148.00
2023-03-16T20:26:58.557Z,1168.00
2023-03-16T20:30:58.426Z,1165.00
2023-03-16T20:34:58.123Z,1027.00
2023-03-16T20:38:57.896Z,1087.00
2023-03-16T20:42:57.668Z,1022.00
2023-03-16T20:46:57.462Z,1208.00
2023-03-16T20:50:57.246Z,1253.00
2023-03-16T20:54:57.031Z,1132.00
2023-03-16T20:58:56.805Z,1168.00
2023-03-16T21:02:56.534Z,1189.00
2023-03-16T21:06:56.360Z,1259.00
2023-03-16T21:10:56.135Z,1204.00
2023-03-16T21:14:55.915Z,1263.00
2023-03-16T21:18:55.747Z,1258.00
2023-03-16T21:22:55.525Z,1234.00
2023-03-16T21:26:55.289Z,1192.00
2023-03-16T21:30:55.164Z,1184.00
2023-03-16T21:34:54.926Z,1131.00
2023-03-16T21:38:54.752Z,1188.00
2023-03-16T21:42:54.535Z,1137.00
2023-03-16T21:46:54.456Z,1169.00
2023-03-16T21:50:54.135Z,1059.00
2023-03-16T21:54:53.946Z,1009.00
2023-03-16T21:58:53.738Z,954.00
2023-03-16T22:02:53.704Z,877.00
2023-03-16T22:06:53.360Z,842.00
2023-03-16T22:10:53.208Z,847.00
2023-03-16T22:14:52.987Z,951.00
2023-03-16T22:18:52.772Z,921.00
2023-03-16T22:22:52.594Z,810.00
2023-03-16T22:26:52.360Z,793.00
2023-03-16T22:30:52.189Z,768.00
2023-03-16T22:34:52.034Z,699.00
2023-03-16T22:38:51.871Z,753.00
2023-03-16T22:42:51.697Z,758.00
2023-03-16T22:46:51.593Z,724.00
2023-03-16T22:50:51.439Z,648.00
2023-03-16T22:54:51.323Z,641.00
2023-03-16T22:58:51.211Z,649.00
2023-03-16T23:02:51.053Z,704.00
2023-03-16T23:06:50.913Z,709.00
2023-03-16T23:10:50.769Z,624.00
2023-03-16T23:14:50.681Z,628.00
2023-03-16T23:18:50.842Z,629.00
2023-03-16T23:22:50.488Z,639.00
2023-03-16T23:26:50.383Z,587.00
2023-03-16T23:30:50.331Z,587.00
2023-03-16T23:34:50.188Z,585.00
2023-03-16T23:38:50.081Z,646.00
2023-03-16T23:42:50.016Z,600.00
2023-03-16T23:46:49.903Z,632.00
2023-03-16T23:50:49.789Z,569.00
2023-03-16T23:54:49.674Z,575.00
2023-03-16T23:58:49.610Z,571.00
